SAME/MDZ METAR and TAF weather

Enter ICAO airport designator
Station Type Date Time Source
SAME METAR 2022/05/24 13:00 UTC NOAA

SAME 241300Z VRB02KT 9999 FEW030 SCT035 06/01 Q1017


Station Type Date Time Source
SAME Decoded METAR 2022/05/24 13:00 UTC NOAA

Mendoza Aerodrome, Argentina (SAME) 32-50S 068-47W 704M
May 24, 2022 - 09:00 AM EDT / 2022.05.24 1300 UTC
Wind: Variable at 2 MPH (2 KT):0
Visibility: greater than 7 mile(s):0
Sky conditions: partly cloudy
Temperature: 42 F (6 C)
Dew Point: 33 F (1 C)
Relative Humidity: 70%
Pressure (altimeter): 30.03 in. Hg (1017 hPa)
ob: SAME 241300Z VRB02KT 9999 FEW030 SCT035 06/01 Q1017
cycle: 13

Station Type Date Time Source
SAME TAF 2022/05/24 12:13 UTC NOAA

TAF SAME 241100Z 2412/2512 23005KT 9999 SCT030 TX16/2420Z TN03/2510Z PROB40
TEMPO 2412/2414 6000 HZFU NSC
BECMG 2415/2417 05005KT
BECMG 2510/2512 18010KT

Example: see airport list